PAUNPAOM

Guest
Details From PAUN - Unalakleet
To PAOM - Nome
Flight Number -
Tags Generated
Created
Modified
Stats Distance 127 nm / 236 km
Max Altitude 0 ft / 0 m
Waypoints 2
Social Downloads 3
Likes 0
Share VATSIM

Download

Looking for another format? Having issues loading an existing format? Contact us
Advertisement - Login to hide

Notes

Generated

Route

PAUN PAOM

ID Type Via Altitude Latitude Longitude Leg Dist Tot Dist Heading (true) Name
O PAUN APT - 0 ft / 0 m 63.88345˚ -160.79903˚ - 0 nm - -
O PAOM APT - 0 ft / 0 m 64.50723˚ -165.45178˚ 127 nm 127 nm 289° / 285° NOME

Altitude Profile

Advertisement - Login to hide

PAUN

Details ICAO PAUN (UNK)
Name Unalakleet
Region USA (Alaska)
Timezone America/Anchorage (UTC-8.0)
Stats Elevation 68 ft / 21 m (AMSL)
Location 63.886590° -160.796931°
Runways 2
Magnetic Variation 12.026° E

METAR

PAUN 211656Z AUTO 22005KT 10SM CLR 06/04 A2950 RMK AO2 SLP994 T00560039

Decode

TAF

TAF PAUN 211120Z 2112/2212 33006KT P6SM VCSH FEW070 BKN120 FM211600 30010KT P6SM VCSH SCT040 BKN090 FM212000 32013KT P6SM -SHRA SCT025 BKN040 OVC090 FM220400 30008KT P6SM VCSH FEW025 SCT040 BKN090

Decode

Departure Runways

ID Width Length Bearing (true) Bearing (mag) Surface Threshold Offset Overrun Length
15 151 ft / 46 m 5,990 ft / 1,826 m 164.15° 152.12° Asphalt 0 ft / 0 m 499 ft / 152 m
26 79 ft / 24 m 1,993 ft / 608 m 278.43° 266.40° Asphalt 0 ft / 0 m 0 ft / 0 m
33 151 ft / 46 m 5,990 ft / 1,826 m 344.16° 332.13° Asphalt 0 ft / 0 m 0 ft / 0 m
8 79 ft / 24 m 1,993 ft / 608 m 98.42° 86.39° Asphalt 0 ft / 0 m 0 ft / 0 m

PAOM

Details ICAO PAOM (OME)
Name NOME
Region USA (Alaska)
Timezone America/Nome (UTC-8.0)
Stats Elevation 37 ft / 11 m (AMSL)
Location 64.512227° -165.445062°
Runways 2
Magnetic Variation 9.891° E

METAR

PAOM 211653Z 34013KT 10SM BKN055 BKN070 07/02 A2959

Decode

TAF

TAF PAOM 211120Z 2112/2212 35013KT P6SM SCT050 BKN090

Decode

Destination Runways

ID Width Length Bearing (true) Bearing (mag) Surface Threshold Offset Overrun Length
03 151 ft / 46 m 5,560 ft / 1,695 m 41.63° 31.74° Asphalt 0 ft / 0 m 0 ft / 0 m
10 151 ft / 46 m 5,979 ft / 1,822 m 109.76° 99.87° Asphalt 0 ft / 0 m 0 ft / 0 m
21 151 ft / 46 m 5,560 ft / 1,695 m 221.65° 211.76° Asphalt 0 ft / 0 m 0 ft / 0 m
28 151 ft / 46 m 5,979 ft / 1,822 m 289.80° 279.91° Asphalt 0 ft / 0 m 0 ft / 0 m

Approach Navaids

Runway Type Ident Frequency Range Bearing (true) Bearing (mag) Slope Elevation
28 Localiser IOME 108.70 MHz 18 nm / 33 km 289.76° 279.87° - 37 ft / 11 m (AMSL)
28 Glidescope IOME 108.70 MHz 10 nm / 19 km 289.78° 279.89° 3.00° 15 ft / 5 m (AMSL)

Popular Alternatives